Time;durP1;ratioP1;P1;durP2;ratioP2;P2;SDS_P1;SDS_P2;PMS_P1;PMS_P2;Temp;Humidity;BMP_temperature;BMP_pressure;BME280_temperature;BME280_humidity;BME280_pressure;Samples;Min_cycle;Max_cycle;Signal;HPM_P1;HPM_P2
2023/07/22 00:02:20;;;;;;;75.23;15.43;;;16.70;1.00;;;;;;5116099;28;20166;-79
2023/07/22 00:04:46;;;;;;;74.77;12.93;;;16.60;1.00;;;;;;5116377;28;20178;-79
2023/07/22 00:07:11;;;;;;;72.87;14.20;;;16.60;1.00;;;;;;5115908;28;20447;-79
2023/07/22 00:09:38;;;;;;;74.17;13.70;;;16.60;1.00;;;;;;5116287;28;20198;-79
2023/07/22 00:12:04;;;;;;;71.63;14.07;;;16.50;1.00;;;;;;5097788;28;20163;-79
2023/07/22 00:14:30;;;;;;;72.67;13.73;;;16.50;1.00;;;;;;5115956;28;20860;-79
2023/07/22 00:16:56;;;;;;;71.87;12.93;;;16.50;1.00;;;;;;5116162;28;20432;-79
2023/07/22 00:19:21;;;;;;;73.17;13.53;;;16.50;1.00;;;;;;5115732;28;20186;-79
2023/07/22 00:21:47;;;;;;;73.20;12.93;;;16.50;1.00;;;;;;5115972;28;20629;-79
2023/07/22 00:24:13;;;;;;;75.20;13.30;;;16.50;1.00;;;;;;5116249;28;20231;-79
2023/07/22 00:26:38;;;;;;;71.50;12.70;;;16.50;1.00;;;;;;5115972;28;20326;-79
2023/07/22 00:29:04;;;;;;;72.30;12.87;;;16.50;1.00;;;;;;5116388;28;20224;-79
2023/07/22 00:31:30;;;;;;;71.77;11.10;;;16.50;1.00;;;;;;5115995;28;20689;-79
2023/07/22 00:33:56;;;;;;;73.23;12.20;;;16.40;1.00;;;;;;5116226;28;20409;-79
2023/07/22 00:36:21;;;;;;;72.60;11.30;;;16.30;1.00;;;;;;5115906;28;20171;-79
2023/07/22 00:38:47;;;;;;;73.50;12.20;;;16.30;1.00;;;;;;5116564;28;20191;-79
2023/07/22 00:41:13;;;;;;;77.77;12.47;;;16.30;1.00;;;;;;5120168;28;20180;-79
2023/07/22 00:43:38;;;;;;;73.93;13.03;;;16.30;1.00;;;;;;5119796;28;20166;-79
2023/07/22 00:46:04;;;;;;;73.77;12.53;;;16.30;1.00;;;;;;5119472;28;20676;-79
2023/07/22 00:48:31;;;;;;;72.13;12.50;;;16.30;1.00;;;;;;5119693;28;20565;-79
2023/07/22 00:50:57;;;;;;;72.07;12.47;;;16.20;1.00;;;;;;5119371;28;20443;-79
2023/07/22 00:53:23;;;;;;;73.67;11.90;;;16.20;1.00;;;;;;5119650;28;20438;-79
2023/07/22 00:55:49;;;;;;;73.30;12.50;;;16.20;1.00;;;;;;5119545;28;20917;-79
2023/07/22 00:58:15;;;;;;;74.30;11.30;;;16.10;1.00;;;;;;5119236;28;20195;-79
2023/07/22 01:00:41;;;;;;;75.17;11.87;;;16.10;1.00;;;;;;5119656;28;20169;-79
2023/07/22 01:03:07;;;;;;;72.87;12.70;;;16.10;1.00;;;;;;5119447;28;20434;-79
2023/07/22 01:05:36;;;;;;;71.93;11.90;;;16.10;1.00;;;;;;5101037;28;20542;-78
2023/07/22 01:08:02;;;;;;;73.07;12.63;;;16.10;1.00;;;;;;5100714;28;20435;-79
2023/07/22 01:10:28;;;;;;;73.67;12.70;;;16.00;1.00;;;;;;5119120;28;20404;-79
2023/07/22 01:12:55;;;;;;;73.60;12.80;;;16.00;1.00;;;;;;5118897;28;20840;-78
2023/07/22 01:15:21;;;;;;;75.80;13.53;;;16.00;1.00;;;;;;5118608;28;20405;-79
2023/07/22 01:17:47;;;;;;;74.43;14.27;;;15.90;1.00;;;;;;5118496;28;20415;-79
2023/07/22 01:20:13;;;;;;;74.37;13.07;;;15.90;1.00;;;;;;5119079;28;20419;-79
2023/07/22 01:22:40;;;;;;;73.50;15.10;;;15.90;1.00;;;;;;5119014;28;20404;-79
2023/07/22 01:25:07;;;;;;;74.37;13.83;;;15.90;1.00;;;;;;5100993;28;20260;-79
2023/07/22 01:27:32;;;;;;;73.77;13.17;;;15.90;1.00;;;;;;5118455;28;20447;-79
2023/07/22 01:29:58;;;;;;;73.37;12.97;;;15.80;1.00;;;;;;5118952;28;20425;-79
2023/07/22 01:32:24;;;;;;;72.93;14.30;;;15.80;1.00;;;;;;5118543;28;20162;-79
2023/07/22 01:34:50;;;;;;;74.60;15.77;;;15.80;1.00;;;;;;5118947;28;20167;-79
2023/07/22 01:37:16;;;;;;;76.20;15.07;;;15.70;1.00;;;;;;5119073;28;20212;-79
2023/07/22 01:39:41;;;;;;;76.43;16.57;;;15.80;1.00;;;;;;5099952;28;20955;-79
2023/07/22 01:42:07;;;;;;;74.83;16.50;;;15.70;1.00;;;;;;5118126;28;20163;-79
2023/07/22 01:44:33;;;;;;;74.30;16.90;;;15.70;1.20;;;;;;5118467;28;20526;-79
2023/07/22 01:47:02;;;;;;;76.83;18.30;;;15.70;2.60;;;;;;5118408;28;20547;-79
2023/07/22 01:49:28;;;;;;;77.73;18.90;;;15.70;5.30;;;;;;5099680;28;20182;-79
2023/07/22 01:51:54;;;;;;;81.97;20.23;;;15.70;5.80;;;;;;5099950;28;20415;-79
2023/07/22 01:54:19;;;;;;;75.83;19.80;;;15.70;7.40;;;;;;5118128;28;20399;-79
2023/07/22 01:56:45;;;;;;;77.60;20.37;;;15.70;9.40;;;;;;5099880;28;20171;-79
2023/07/22 01:59:11;;;;;;;81.07;21.10;;;15.80;9.10;;;;;;5117851;28;20663;-79
2023/07/22 02:01:37;;;;;;;79.03;21.30;;;15.80;10.80;;;;;;5118092;28;20494;-79
2023/07/22 02:04:02;;;;;;;77.97;23.90;;;15.80;10.60;;;;;;5118278;28;20657;-79
2023/07/22 02:06:28;;;;;;;80.17;27.47;;;15.80;13.40;;;;;;5203432;22;20213;-86
2023/07/22 02:08:54;;;;;;;79.23;25.97;;;15.80;14.30;;;;;;5118890;28;20201;-86
2023/07/22 02:11:20;;;;;;;83.57;30.10;;;15.80;14.90;;;;;;5109134;28;20405;-86
2023/07/22 02:13:46;;;;;;;82.63;26.20;;;15.80;14.80;;;;;;5108583;28;20406;-86
2023/07/22 02:16:11;;;;;;;79.50;26.97;;;15.80;15.00;;;;;;5090548;28;20197;-86
2023/07/22 02:18:37;;;;;;;77.57;24.67;;;15.90;16.60;;;;;;5106426;28;20187;-86
2023/07/22 02:21:03;;;;;;;82.20;27.50;;;15.90;15.80;;;;;;5106065;28;20204;-85
2023/07/22 02:23:31;;;;;;;79.17;27.10;;;15.80;16.00;;;;;;5087975;28;20181;-86
2023/07/22 02:25:57;;;;;;;78.77;25.07;;;15.80;16.90;;;;;;5087746;28;20282;-86
2023/07/22 02:28:24;;;;;;;78.50;26.03;;;15.90;15.20;;;;;;5087946;28;20529;-86
2023/07/22 02:30:52;;;;;;;79.20;24.90;;;15.80;14.90;;;;;;5093124;28;20250;-86
2023/07/22 02:33:18;;;;;;;78.17;24.60;;;15.80;13.70;;;;;;5091083;28;20433;-86
2023/07/22 02:35:43;;;;;;;80.10;25.20;;;15.80;14.20;;;;;;5090976;28;20416;-86
2023/07/22 02:38:09;;;;;;;78.43;24.40;;;15.80;14.40;;;;;;5109926;28;20482;-86
2023/07/22 02:40:36;;;;;;;78.17;22.90;;;15.70;14.00;;;;;;5109412;28;20185;-86
2023/07/22 02:43:03;;;;;;;77.73;24.83;;;15.70;12.80;;;;;;5109330;28;20403;-86
2023/07/22 02:45:28;;;;;;;78.67;25.00;;;15.70;13.20;;;;;;5108976;28;20404;-86
2023/07/22 02:47:54;;;;;;;79.87;25.93;;;15.70;13.80;;;;;;5108796;28;20437;-86
2023/07/22 02:50:20;;;;;;;78.27;23.70;;;15.60;14.40;;;;;;5109288;28;20169;-86
2023/07/22 02:52:46;;;;;;;80.50;27.60;;;15.70;13.40;;;;;;5109241;28;20405;-86
2023/07/22 02:55:18;;;;;;;78.70;26.77;;;15.60;15.80;;;;;;5105650;28;20165;-86
2023/07/22 02:57:47;;;;;;;80.77;26.33;;;15.60;15.80;;;;;;5106259;28;20144;-86
2023/07/22 03:00:24;;;;;;;80.10;28.33;;;15.60;17.00;;;;;;5105917;28;20914;-86
2023/07/22 03:02:52;;;;;;;79.67;29.73;;;15.60;18.30;;;;;;5105581;28;20451;-86
2023/07/22 03:05:17;;;;;;;81.67;26.43;;;15.50;19.30;;;;;;5090656;28;20428;-86
2023/07/22 03:07:43;;;;;;;79.70;26.53;;;15.50;19.50;;;;;;5090408;28;20476;-86
2023/07/22 03:10:09;;;;;;;82.17;30.47;;;15.50;20.40;;;;;;5087367;28;20201;-86
2023/07/22 03:12:36;;;;;;;79.87;27.03;;;15.50;19.20;;;;;;5105156;28;20677;-86
2023/07/22 03:15:03;;;;;;;81.60;30.93;;;15.50;20.00;;;;;;5104936;28;20396;-85
2023/07/22 03:17:29;;;;;;;80.67;30.87;;;15.50;20.80;;;;;;5085575;28;20510;-86
2023/07/22 03:19:55;;;;;;;82.77;32.53;;;15.60;18.90;;;;;;5107732;28;20432;-86
2023/07/22 03:22:21;;;;;;;79.20;29.17;;;15.50;18.80;;;;;;5106812;28;20404;-85
2023/07/22 03:24:47;;;;;;;83.17;33.47;;;15.50;20.50;;;;;;5107951;28;20419;-86
2023/07/22 03:27:14;;;;;;;84.20;31.10;;;15.50;21.40;;;;;;5104578;28;20444;-86
2023/07/22 03:29:41;;;;;;;81.20;32.80;;;15.50;21.90;;;;;;5086037;28;20519;-86
2023/07/22 03:32:07;;;;;;;81.50;32.13;;;15.50;21.20;;;;;;5103423;28;20402;-86
2023/07/22 03:34:33;;;;;;;82.40;31.87;;;15.50;21.70;;;;;;5084582;28;20420;-86
2023/07/22 03:36:59;;;;;;;79.80;25.00;;;15.50;20.80;;;;;;5089285;28;20413;-85
2023/07/22 03:39:24;;;;;;;79.67;28.23;;;15.50;19.70;;;;;;5086327;28;20485;-85
2023/07/22 03:41:50;;;;;;;79.77;29.03;;;15.40;19.30;;;;;;5085608;28;20240;-86
2023/07/22 03:44:16;;;;;;;84.03;30.77;;;15.40;19.40;;;;;;5085291;28;20444;-86
2023/07/22 03:46:42;;;;;;;83.23;30.90;;;15.30;20.70;;;;;;5103459;28;20194;-86
2023/07/22 03:49:07;;;;;;;79.10;27.50;;;15.30;21.50;;;;;;5103174;28;20205;-86
2023/07/22 03:51:33;;;;;;;79.10;28.43;;;15.30;21.40;;;;;;5103812;28;20169;-86
2023/07/22 03:54:02;;;;;;;82.00;30.70;;;15.30;20.10;;;;;;5102809;28;20238;-85
2023/07/22 03:56:28;;;;;;;79.70;28.60;;;15.30;21.10;;;;;;5088800;28;20412;-86
2023/07/22 03:58:54;;;;;;;79.43;29.67;;;15.30;20.30;;;;;;5106489;28;20481;-86
2023/07/22 04:01:19;;;;;;;81.87;27.43;;;15.30;19.40;;;;;;5105242;28;20174;-86
2023/07/22 04:03:45;;;;;;;79.07;30.33;;;15.30;19.90;;;;;;5085853;28;20173;-86
2023/07/22 04:06:11;;;;;;;79.70;28.97;;;15.20;21.60;;;;;;5103680;28;20206;-86
2023/07/22 04:08:36;;;;;;;76.97;28.43;;;15.20;21.60;;;;;;5103658;28;20190;-86
2023/07/22 04:11:02;;;;;;;78.47;23.90;;;15.30;20.70;;;;;;5085377;28;20194;-86
2023/07/22 04:13:28;;;;;;;78.97;26.90;;;15.20;20.20;;;;;;5084251;28;20163;-85
2023/07/22 04:18:22;;;;;;;79.77;26.60;;;15.20;22.10;;;;;;5099545;28;20226;-86
2023/07/22 04:20:48;;;;;;;79.57;31.23;;;15.20;21.80;;;;;;5069097;28;20415;-86
2023/07/22 04:23:13;;;;;;;81.93;28.60;;;15.20;21.40;;;;;;5064518;28;20409;-86
2023/07/22 04:25:44;;;;;;;80.57;28.60;;;15.20;22.00;;;;;;5087125;28;20167;-86
2023/07/22 04:28:10;;;;;;;81.00;29.63;;;15.10;23.00;;;;;;5087374;28;20314;-86
2023/07/22 04:30:36;;;;;;;79.50;29.17;;;15.20;24.20;;;;;;5087043;28;20411;-86
2023/07/22 04:33:03;;;;;;;78.87;30.73;;;15.20;23.40;;;;;;5086485;28;20437;-86
2023/07/22 04:35:35;;;;;;;80.97;29.87;;;15.20;23.90;;;;;;5087455;28;20403;-86
2023/07/22 04:38:01;;;;;;;81.77;37.60;;;15.30;23.60;;;;;;5086797;28;20431;-86
2023/07/22 04:40:33;;;;;;;77.90;26.50;;;15.30;24.50;;;;;;5068974;28;20410;-86
2023/07/22 04:42:58;;;;;;;82.60;31.33;;;15.30;24.40;;;;;;5086820;28;20164;-86
2023/07/22 04:45:24;;;;;;;79.70;30.00;;;15.40;24.90;;;;;;5068489;28;20413;-86
2023/07/22 04:47:50;;;;;;;80.30;31.80;;;15.40;24.70;;;;;;5086413;28;20172;-86
2023/07/22 04:50:17;;;;;;;83.43;27.67;;;15.40;24.60;;;;;;5082492;28;20169;-86
2023/07/22 04:52:50;;;;;;;79.87;30.23;;;15.50;24.70;;;;;;5068509;28;20535;-86
2023/07/22 04:55:16;;;;;;;80.20;30.80;;;15.50;24.70;;;;;;5082822;28;20400;-86
2023/07/22 04:57:42;;;;;;;79.47;30.80;;;15.50;25.80;;;;;;5086255;28;20406;-86
2023/07/22 05:00:14;;;;;;;81.77;30.03;;;15.50;25.20;;;;;;5064913;28;20585;-86
2023/07/22 05:02:39;;;;;;;78.97;24.07;;;15.60;25.00;;;;;;5063935;28;20453;-86
2023/07/22 05:05:05;;;;;;;78.03;26.33;;;15.50;26.20;;;;;;5083163;28;20610;-86
2023/07/22 05:07:31;;;;;;;81.07;25.97;;;15.50;26.30;;;;;;5082215;28;20298;-86
2023/07/22 05:09:57;;;;;;;76.60;24.03;;;15.60;26.10;;;;;;5081387;28;20458;-86
2023/07/22 05:12:23;;;;;;;78.70;24.60;;;15.50;26.10;;;;;;5082391;28;20157;-86
2023/07/22 05:14:49;;;;;;;76.73;23.30;;;15.60;25.40;;;;;;5085042;28;20421;-86
2023/07/22 05:17:15;;;;;;;80.00;27.80;;;15.60;24.20;;;;;;5082524;28;20186;-86
2023/07/22 05:19:40;;;;;;;76.60;22.07;;;15.60;23.50;;;;;;5081924;28;20937;-86
2023/07/22 05:22:07;;;;;;;82.50;28.53;;;15.60;23.60;;;;;;5085650;28;20477;-86
2023/07/22 05:24:32;;;;;;;78.93;22.10;;;15.60;23.30;;;;;;5068146;28;20432;-86
2023/07/22 05:26:58;;;;;;;78.20;24.50;;;15.60;22.90;;;;;;5086264;28;20509;-86
2023/07/22 05:29:24;;;;;;;76.83;24.17;;;15.60;23.20;;;;;;5072661;28;20429;-86
2023/07/22 05:31:50;;;;;;;76.70;21.50;;;15.60;23.30;;;;;;5086705;28;20163;-86
2023/07/22 05:34:15;;;;;;;76.57;24.00;;;15.70;22.20;;;;;;5071561;28;20239;-86
2023/07/22 05:36:41;;;;;;;79.70;22.67;;;15.70;20.00;;;;;;5086316;28;20164;-86
2023/07/22 05:39:07;;;;;;;76.57;21.40;;;15.70;23.80;;;;;;5067456;28;20208;-86
2023/07/22 05:41:33;;;;;;;75.87;20.57;;;15.80;22.90;;;;;;5085966;28;20168;-86
2023/07/22 05:43:59;;;;;;;77.90;19.73;;;15.90;22.70;;;;;;5067387;28;20178;-86
2023/07/22 05:46:24;;;;;;;75.83;20.83;;;15.90;19.60;;;;;;5068195;28;20473;-86
2023/07/22 05:48:50;;;;;;;76.10;20.07;;;15.90;20.10;;;;;;5071791;28;20281;-86
2023/07/22 05:51:17;;;;;;;78.40;22.57;;;16.00;18.20;;;;;;5068175;28;20184;-86
2023/07/22 05:53:42;;;;;;;76.20;19.23;;;16.10;14.30;;;;;;5067797;28;20411;-86
2023/07/22 05:56:08;;;;;;;75.83;19.03;;;16.20;15.30;;;;;;5068591;28;20417;-86
2023/07/22 05:58:34;;;;;;;76.63;18.93;;;16.20;12.90;;;;;;5086183;28;20217;-86
2023/07/22 06:01:00;;;;;;;78.90;20.43;;;16.20;14.10;;;;;;5087557;28;20168;-85
2023/07/22 06:03:26;;;;;;;79.07;21.40;;;16.20;14.70;;;;;;5090518;28;20379;-85
2023/07/22 06:05:51;;;;;;;81.30;21.93;;;16.20;13.90;;;;;;5088725;28;20195;-85
2023/07/22 06:08:17;;;;;;;79.60;21.23;;;16.30;14.20;;;;;;5089428;28;20184;-85
2023/07/22 06:10:43;;;;;;;76.60;21.20;;;16.40;13.80;;;;;;5089189;28;20174;-85
2023/07/22 06:13:09;;;;;;;77.50;19.20;;;16.40;15.40;;;;;;5090644;28;20171;-85
2023/07/22 06:15:35;;;;;;;79.33;17.80;;;16.50;15.50;;;;;;5087842;28;20394;-85
2023/07/22 06:18:01;;;;;;;76.10;15.70;;;16.60;12.80;;;;;;5086175;28;20571;-85
2023/07/22 06:20:30;;;;;;;76.10;18.23;;;16.70;11.00;;;;;;5068596;28;20422;-85
2023/07/22 06:23:02;;;;;;;78.73;17.47;;;16.70;3.60;;;;;;5079063;28;20411;-85
2023/07/22 06:25:37;;;;;;;75.07;16.87;;;16.80;1.00;;;;;;5061814;28;20410;-85
2023/07/22 06:28:47;;;;;;;76.37;17.20;;;16.90;1.00;;;;;;5061972;28;20432;-86
2023/07/22 06:31:13;;;;;;;77.27;17.30;;;17.00;1.00;;;;;;5025563;28;20416;-85
2023/07/22 06:33:39;;;;;;;77.73;17.10;;;17.10;1.00;;;;;;5089376;28;20473;-85
2023/07/22 06:36:05;;;;;;;74.73;15.40;;;17.30;1.00;;;;;;5088121;28;20631;-85
2023/07/22 06:38:30;;;;;;;75.90;13.57;;;17.50;1.00;;;;;;5090032;28;20208;-85
2023/07/22 06:40:57;;;;;;;76.37;10.60;;;17.60;1.00;;;;;;5089062;28;20403;-85
2023/07/22 06:43:23;;;;;;;78.63;11.30;;;17.90;1.00;;;;;;5070606;28;20198;-85
2023/07/22 06:45:48;;;;;;;79.87;11.90;;;18.00;1.00;;;;;;5070931;28;20434;-84
2023/07/22 06:48:14;;;;;;;79.83;14.30;;;17.90;1.00;;;;;;5089154;28;20187;-85
2023/07/22 06:50:40;;;;;;;77.20;10.60;;;18.00;1.00;;;;;;5070392;28;20309;-84
2023/07/22 06:53:07;;;;;;;78.90;11.80;;;18.10;1.00;;;;;;5087985;28;20215;-85
2023/07/22 06:55:35;;;;;;;75.17;10.17;;;18.10;1.00;;;;;;5089557;28;20406;-85
2023/07/22 06:58:01;;;;;;;81.70;11.53;;;18.20;1.00;;;;;;5071635;28;20260;-85
2023/07/22 07:00:29;;;;;;;75.47;9.03;;;18.30;1.00;;;;;;5089162;28;20375;-85
2023/07/22 07:02:55;;;;;;;73.60;8.70;;;18.20;1.00;;;;;;5089653;28;20404;-85
2023/07/22 07:05:24;;;;;;;77.17;9.30;;;18.20;1.00;;;;;;5070620;28;20430;-85
2023/07/22 07:07:49;;;;;;;76.07;9.33;;;18.20;1.00;;;;;;5088752;28;20441;-85
2023/07/22 07:10:15;;;;;;;73.90;8.10;;;18.40;1.00;;;;;;5089578;28;20489;-85
2023/07/22 07:12:41;;;;;;;75.50;9.20;;;18.40;1.00;;;;;;5088515;28;20228;-85
2023/07/22 07:15:10;;;;;;;75.80;9.63;;;18.40;1.00;;;;;;5088764;28;20398;-85
2023/07/22 07:17:36;;;;;;;77.93;9.37;;;18.50;1.00;;;;;;5071679;28;20424;-85
2023/07/22 07:20:02;;;;;;;74.70;8.90;;;18.70;1.00;;;;;;5071183;28;20431;-85
2023/07/22 07:22:27;;;;;;;72.40;8.10;;;18.80;1.00;;;;;;5071313;28;20172;-85
2023/07/22 07:24:53;;;;;;;76.50;8.00;;;18.90;1.00;;;;;;5087709;28;20420;-85
2023/07/22 07:27:19;;;;;;;76.10;9.50;;;19.00;1.00;;;;;;5087470;28;20223;-85
2023/07/22 07:29:44;;;;;;;74.70;9.30;;;19.10;1.00;;;;;;5173924;22;20181;-85
2023/07/22 07:32:13;;;;;;;73.37;9.03;;;19.10;1.00;;;;;;5064050;28;20164;-85
2023/07/22 07:34:38;;;;;;;77.07;9.47;;;18.90;1.00;;;;;;5080459;28;20243;-85
2023/07/22 07:37:05;;;;;;;74.67;9.20;;;18.90;1.00;;;;;;5064222;28;20445;-83
2023/07/22 07:39:30;;;;;;;74.07;8.43;;;18.90;1.00;;;;;;5063898;28;20254;-84
2023/07/22 07:41:58;;;;;;;72.87;8.67;;;18.90;1.00;;;;;;5081359;28;20397;-85
2023/07/22 07:44:24;;;;;;;73.77;8.47;;;19.00;1.00;;;;;;5082454;28;20155;-84
2023/07/22 07:46:50;;;;;;;75.50;7.27;;;19.10;1.00;;;;;;5063835;28;20460;-84
2023/07/22 07:49:15;;;;;;;76.20;9.40;;;19.40;1.00;;;;;;5080575;28;20183;-84
2023/07/22 07:51:42;;;;;;;74.77;8.37;;;19.20;1.00;;;;;;5064690;28;20171;-84
2023/07/22 07:54:08;;;;;;;79.10;8.83;;;19.40;1.00;;;;;;5064393;28;20236;-84
2023/07/22 07:56:34;;;;;;;73.70;8.00;;;19.50;1.00;;;;;;5082731;28;20407;-84
2023/07/22 07:58:59;;;;;;;74.80;8.30;;;19.60;1.00;;;;;;5080905;28;20548;-84
2023/07/22 08:01:25;;;;;;;80.13;8.77;;;19.70;1.00;;;;;;5082652;28;20226;-85
2023/07/22 08:03:51;;;;;;;80.70;9.33;;;19.90;1.00;;;;;;5064983;28;20264;-85
2023/07/22 08:06:19;;;;;;;84.07;11.02;;;20.00;1.00;;;;;;5170891;22;20424;-83
2023/07/22 08:09:00;;;;;;;73.50;8.60;;;20.00;1.00;;;;;;5094553;28;20214;-83
2023/07/22 08:11:25;;;;;;;75.10;8.60;;;20.10;1.00;;;;;;5095438;28;20802;-83
2023/07/22 08:13:52;;;;;;;74.50;8.43;;;20.00;1.00;;;;;;5094648;28;20436;-82
2023/07/22 08:16:17;;;;;;;73.10;7.90;;;20.00;1.00;;;;;;5094434;28;20159;-83
2023/07/22 08:18:43;;;;;;;72.70;7.60;;;19.90;1.00;;;;;;5076310;28;20991;-83
2023/07/22 08:21:09;;;;;;;75.77;7.60;;;19.70;1.00;;;;;;5094467;28;20160;-83
2023/07/22 08:23:36;;;;;;;72.70;7.63;;;19.70;1.00;;;;;;5094373;28;20433;-83
2023/07/22 08:26:05;;;;;;;75.07;7.83;;;19.80;1.00;;;;;;5093980;28;20458;-83
2023/07/22 08:28:31;;;;;;;72.17;7.10;;;19.80;1.00;;;;;;5094102;28;20412;-83
2023/07/22 08:30:57;;;;;;;73.97;7.53;;;19.80;1.00;;;;;;5094458;28;20398;-83
2023/07/22 08:33:25;;;;;;;73.37;6.93;;;19.90;1.00;;;;;;5094795;28;20160;-83
2023/07/22 08:35:56;;;;;;;69.60;6.30;;;19.90;1.00;;;;;;5094388;28;20768;-83
2023/07/22 08:38:22;;;;;;;70.73;5.80;;;20.10;1.00;;;;;;5094366;28;20424;-82
2023/07/22 08:40:51;;;;;;;72.47;6.80;;;20.20;1.00;;;;;;5094140;28;20412;-83
2023/07/22 08:43:20;;;;;;;70.40;6.37;;;20.20;1.00;;;;;;5076624;28;20175;-83
2023/07/22 08:45:47;;;;;;;71.37;6.30;;;20.30;1.00;;;;;;5075945;28;20434;-83
2023/07/22 08:48:18;;;;;;;69.63;5.63;;;20.30;1.00;;;;;;5093976;28;20512;-83
2023/07/22 08:50:51;;;;;;;69.30;5.47;;;20.40;1.00;;;;;;5094283;28;20392;-83
2023/07/22 08:53:21;;;;;;;69.80;5.90;;;20.40;1.00;;;;;;5094182;28;20376;-82
2023/07/22 08:55:50;;;;;;;70.07;6.10;;;20.60;1.00;;;;;;5093957;28;20410;-83
2023/07/22 08:58:16;;;;;;;69.60;5.87;;;20.70;1.00;;;;;;5094064;28;20424;-83
2023/07/22 09:00:42;;;;;;;70.70;5.70;;;20.70;1.00;;;;;;5096709;28;20948;-83
2023/07/22 09:03:09;;;;;;;69.67;5.50;;;20.80;1.00;;;;;;5098175;28;20439;-83
2023/07/22 09:05:36;;;;;;;70.33;5.83;;;20.80;1.00;;;;;;5098022;28;20501;-83
2023/07/22 09:08:03;;;;;;;69.17;5.03;;;20.80;1.00;;;;;;5097666;28;20861;-83
2023/07/22 09:10:29;;;;;;;75.00;5.20;;;21.00;1.00;;;;;;5097600;28;20407;-82
2023/07/22 09:12:56;;;;;;;70.47;4.97;;;21.00;1.00;;;;;;5098026;28;20401;-82
2023/07/22 09:15:23;;;;;;;69.37;5.37;;;21.20;1.00;;;;;;5079414;28;20430;-82
2023/07/22 09:17:49;;;;;;;69.57;5.33;;;21.30;1.00;;;;;;5097739;28;20407;-83
2023/07/22 09:20:15;;;;;;;69.70;5.60;;;21.40;1.00;;;;;;5097396;28;20907;-82
2023/07/22 09:22:49;;;;;;;69.27;5.10;;;21.50;1.00;;;;;;5097867;28;20398;-83
2023/07/22 09:25:25;;;;;;;74.33;6.67;;;21.60;1.00;;;;;;5097447;28;20389;-83
2023/07/22 09:27:53;;;;;;;71.00;5.90;;;21.50;1.00;;;;;;5097618;28;20524;-82
2023/07/22 09:30:28;;;;;;;70.20;5.10;;;21.60;1.00;;;;;;5097714;28;20734;-82
2023/07/22 09:32:57;;;;;;;71.40;5.77;;;21.60;1.00;;;;;;5097583;28;20388;-82
2023/07/22 09:35:24;;;;;;;68.40;4.80;;;21.80;1.00;;;;;;5097168;28;20389;-82
2023/07/22 09:37:50;;;;;;;69.47;5.10;;;21.80;1.00;;;;;;5096933;28;20442;-82
2023/07/22 09:40:21;;;;;;;69.97;5.60;;;21.80;1.00;;;;;;5078979;28;20409;-83
2023/07/22 09:42:51;;;;;;;70.10;5.60;;;22.00;1.00;;;;;;5097142;28;20573;-83
2023/07/22 09:45:18;;;;;;;72.27;5.60;;;22.10;1.00;;;;;;5097296;28;20381;-83
2023/07/22 09:47:49;;;;;;;68.47;4.90;;;21.90;1.00;;;;;;5097137;28;20445;-82
2023/07/22 09:50:21;;;;;;;70.23;5.10;;;21.90;1.00;;;;;;5078860;28;20905;-83
2023/07/22 09:52:53;;;;;;;69.07;5.07;;;21.90;1.00;;;;;;5079284;28;20504;-82
2023/07/22 09:55:23;;;;;;;68.43;4.93;;;22.00;1.00;;;;;;5097265;28;20401;-83
2023/07/22 09:58:03;;;;;;;71.67;5.33;;;22.10;1.00;;;;;;5097315;28;20395;-83
2023/07/22 10:00:33;;;;;;;69.27;4.60;;;22.20;1.00;;;;;;5097241;28;20387;-82
2023/07/22 10:03:01;;;;;;;68.33;4.33;;;22.40;1.00;;;;;;5096877;28;20374;-82
2023/07/22 10:05:28;;;;;;;69.60;4.90;;;22.60;1.00;;;;;;5097057;28;20413;-82
2023/07/22 10:07:58;;;;;;;69.10;5.00;;;22.60;1.00;;;;;;5096516;28;20460;-82
2023/07/22 10:10:28;;;;;;;69.70;4.63;;;22.70;1.00;;;;;;5096213;28;20393;-83
2023/07/22 10:12:56;;;;;;;70.07;5.07;;;22.80;1.00;;;;;;5096276;28;20477;-82
2023/07/22 10:15:24;;;;;;;71.70;4.93;;;23.00;1.00;;;;;;5096600;28;20424;-83
2023/07/22 10:17:50;;;;;;;70.00;5.07;;;23.10;1.00;;;;;;5096632;28;20442;-82
2023/07/22 10:20:16;;;;;;;68.87;5.33;;;23.30;1.00;;;;;;5096444;28;20406;-82
2023/07/22 10:22:46;;;;;;;70.13;5.00;;;23.40;1.00;;;;;;5078323;28;20414;-83
2023/07/22 10:25:17;;;;;;;70.17;5.10;;;23.60;1.00;;;;;;5097011;28;20692;-82
2023/07/22 10:27:43;;;;;;;69.10;4.93;;;23.80;1.00;;;;;;5096087;28;20984;-82
2023/07/22 10:30:11;;;;;;;70.00;5.40;;;24.10;1.00;;;;;;5096588;28;20451;-82
2023/07/22 10:32:41;;;;;;;68.03;4.73;;;24.30;1.00;;;;;;5096461;28;20448;-83
2023/07/22 10:35:12;;;;;;;69.10;5.23;;;24.50;1.00;;;;;;5096182;28;20384;-82
2023/07/22 10:37:41;;;;;;;69.27;5.20;;;24.70;1.00;;;;;;5077980;28;20411;-82
2023/07/22 10:40:28;;;;;;;71.30;5.07;;;24.80;1.00;;;;;;5096039;28;20394;-82
2023/07/22 10:43:17;;;;;;;68.60;4.40;;;24.60;1.00;;;;;;5095979;28;20393;-82
2023/07/22 10:45:56;;;;;;;69.00;5.17;;;24.00;1.00;;;;;;5086851;28;20420;-83
2023/07/22 10:48:26;;;;;;;68.30;4.67;;;24.00;1.00;;;;;;5097557;28;20938;-83
2023/07/22 10:50:58;;;;;;;69.90;5.77;;;24.40;1.00;;;;;;5096150;28;20456;-83
2023/07/22 10:53:24;;;;;;;68.57;5.13;;;24.60;1.00;;;;;;5096593;28;20440;-83
2023/07/22 10:56:11;;;;;;;69.60;5.20;;;24.50;1.00;;;;;;5096391;28;20758;-83
2023/07/22 10:58:46;;;;;;;68.50;4.90;;;24.20;1.00;;;;;;5095954;28;20182;-83
2023/07/22 11:01:30;;;;;;;68.77;4.60;;;24.00;1.00;;;;;;5095651;28;20386;-83
2023/07/22 11:04:07;;;;;;;68.37;4.50;;;23.90;1.00;;;;;;5077696;28;20476;-82
2023/07/22 11:06:33;;;;;;;69.77;5.00;;;23.80;1.00;;;;;;5095502;28;20450;-83
2023/07/22 11:08:59;;;;;;;71.70;5.17;;;23.90;1.00;;;;;;5095469;28;20442;-83
2023/07/22 11:11:38;;;;;;;68.47;4.60;;;24.00;1.00;;;;;;5096413;28;20920;-83
2023/07/22 11:14:14;;;;;;;70.37;4.93;;;24.10;1.00;;;;;;5096018;28;20168;-83
2023/07/22 11:16:42;;;;;;;69.60;6.07;;;24.40;1.00;;;;;;5095601;28;20456;-82
2023/07/22 11:19:08;;;;;;;69.27;5.23;;;24.70;1.00;;;;;;5095167;28;20423;-81
2023/07/22 11:21:34;;;;;;;68.93;4.93;;;24.90;1.00;;;;;;5097579;28;20461;-81
2023/07/22 11:23:59;;;;;;;70.70;5.00;;;25.00;1.00;;;;;;5097709;28;20167;-81
2023/07/22 11:26:25;;;;;;;69.77;5.30;;;25.30;1.00;;;;;;5098353;28;20189;-81
2023/07/22 11:28:52;;;;;;;69.33;5.47;;;25.50;1.00;;;;;;5098232;28;20178;-81
2023/07/22 11:31:18;;;;;;;69.60;6.00;;;25.40;1.00;;;;;;5097648;28;20170;-81
2023/07/22 11:33:46;;;;;;;68.87;5.43;;;25.40;1.00;;;;;;5097854;28;20401;-81
2023/07/22 11:36:13;;;;;;;69.87;6.20;;;25.30;1.00;;;;;;5097842;28;20161;-81
2023/07/22 11:38:39;;;;;;;70.00;5.73;;;25.50;1.00;;;;;;5098108;28;21020;-81
2023/07/22 11:41:05;;;;;;;69.60;6.50;;;25.60;1.00;;;;;;5078983;28;20444;-81
2023/07/22 11:43:31;;;;;;;68.97;5.37;;;25.60;1.00;;;;;;5079725;28;20434;-81
2023/07/22 11:45:57;;;;;;;69.60;6.00;;;25.80;1.00;;;;;;5098119;28;20398;-81
2023/07/22 11:48:23;;;;;;;69.77;5.80;;;25.60;1.00;;;;;;5097577;28;20436;-81
2023/07/22 11:50:48;;;;;;;70.40;5.10;;;25.60;1.00;;;;;;5098105;28;20246;-81
2023/07/22 11:53:14;;;;;;;68.80;4.63;;;25.50;1.00;;;;;;5098006;28;20196;-81
2023/07/22 11:55:41;;;;;;;71.27;5.80;;;25.50;1.00;;;;;;5097917;28;20163;-81
2023/07/22 11:58:07;;;;;;;69.00;4.57;;;25.60;1.00;;;;;;5097046;28;20421;-81
2023/07/22 12:00:34;;;;;;;68.30;4.80;;;25.60;1.00;;;;;;5097972;28;20884;-82
2023/07/22 12:03:08;;;;;;;70.10;4.27;;;25.80;1.00;;;;;;5097923;28;20404;-81
2023/07/22 12:05:37;;;;;;;69.47;4.43;;;26.10;1.00;;;;;;5097125;28;20421;-81
2023/07/22 12:08:04;;;;;;;68.70;3.80;;;26.50;1.00;;;;;;5096684;28;20473;-80
2023/07/22 12:10:29;;;;;;;70.07;4.07;;;26.80;1.00;;;;;;5079341;28;20821;-82
2023/07/22 12:13:00;;;;;;;68.93;3.73;;;27.00;1.00;;;;;;5097831;28;20401;-82
2023/07/22 12:15:26;;;;;;;68.57;3.03;;;27.00;1.00;;;;;;5097158;28;20170;-81
2023/07/22 12:18:00;;;;;;;68.67;3.40;;;27.00;1.00;;;;;;5097344;28;20485;-81
2023/07/22 12:20:27;;;;;;;68.67;3.77;;;26.90;1.00;;;;;;5097661;28;20735;-81
2023/07/22 12:22:54;;;;;;;75.43;3.60;;;26.90;1.00;;;;;;5097627;28;20405;-81
2023/07/22 12:25:20;;;;;;;70.57;3.60;;;26.90;1.00;;;;;;5079357;28;20417;-80
2023/07/22 12:27:45;;;;;;;69.60;3.07;;;27.00;1.00;;;;;;5079933;28;20456;-81
2023/07/22 12:30:12;;;;;;;69.07;3.20;;;27.20;1.00;;;;;;5097664;28;20272;-81
2023/07/22 12:32:38;;;;;;;70.50;4.20;;;27.20;1.00;;;;;;5078995;28;20172;-81
2023/07/22 12:35:04;;;;;;;68.37;2.90;;;27.10;1.00;;;;;;5097969;28;20413;-81
2023/07/22 12:37:33;;;;;;;68.30;3.17;;;27.00;1.00;;;;;;5096924;28;20405;-81
2023/07/22 12:39:59;;;;;;;68.07;3.23;;;26.80;1.00;;;;;;5096829;28;20941;-81
2023/07/22 12:42:24;;;;;;;68.27;3.27;;;26.90;1.00;;;;;;5096471;28;20401;-81